Time;durP1;ratioP1;P1;durP2;ratioP2;P2;SDS_P1;SDS_P2;PMS_P1;PMS_P2;Temp;Humidity;BMP_temperature;BMP_pressure;BME280_temperature;BME280_humidity;BME280_pressure;Samples;Min_cycle;Max_cycle;Signal;HPM_P1;HPM_P2
2023/04/11 00:00:52;;;;;;;5.25;4.65;;;7.00;99.90;;;;;;4966731;28;20791;-65
2023/04/11 00:03:18;;;;;;;5.70;4.75;;;7.10;99.90;;;;;;4965986;28;20077;-65
2023/04/11 00:05:45;;;;;;;5.95;4.80;;;7.10;99.90;;;;;;4957805;28;20042;-65
2023/04/11 00:08:11;;;;;;;6.38;5.07;;;7.20;99.90;;;;;;4967928;28;20058;-65
2023/04/11 00:10:36;;;;;;;6.10;5.35;;;7.20;99.90;;;;;;4974281;28;20062;-64
2023/04/11 00:13:02;;;;;;;6.20;5.38;;;7.30;99.90;;;;;;4969764;28;20218;-64
2023/04/11 00:15:28;;;;;;;7.68;5.35;;;7.40;99.90;;;;;;4971119;28;20540;-65
2023/04/11 00:17:54;;;;;;;6.25;5.00;;;7.40;99.90;;;;;;4969562;28;20455;-68
2023/04/11 00:20:20;;;;;;;5.68;4.75;;;7.40;99.90;;;;;;4976360;28;20035;-68
2023/04/11 00:22:46;;;;;;;5.40;4.00;;;7.40;99.90;;;;;;4968828;28;20519;-67
2023/04/11 00:25:12;;;;;;;4.00;3.47;;;7.20;99.90;;;;;;4973648;28;20070;-68
2023/04/11 00:27:38;;;;;;;4.43;3.63;;;7.00;99.90;;;;;;4970700;28;20172;-67
2023/04/11 00:30:05;;;;;;;6.00;4.13;;;6.80;99.90;;;;;;4967181;28;21018;-65
2023/04/11 00:32:31;;;;;;;5.38;4.13;;;6.70;99.90;;;;;;4983283;28;20626;-65
2023/04/11 00:34:57;;;;;;;5.53;4.18;;;6.60;99.90;;;;;;4967336;28;20041;-66
2023/04/11 00:37:22;;;;;;;6.90;4.80;;;6.50;99.90;;;;;;4963922;28;20047;-66
2023/04/11 00:39:53;;;;;;;6.13;5.35;;;6.60;99.90;;;;;;4966610;28;20039;-66
2023/04/11 00:42:19;;;;;;;6.82;5.70;;;6.60;99.90;;;;;;4960831;28;20046;-66
2023/04/11 00:44:45;;;;;;;5.55;4.68;;;6.60;99.90;;;;;;4968966;28;20173;-65
2023/04/11 00:47:11;;;;;;;8.70;5.40;;;6.70;99.90;;;;;;4964351;28;20038;-65
2023/04/11 00:49:38;;;;;;;7.07;5.40;;;6.90;99.90;;;;;;4962106;28;20039;-65
2023/04/11 00:52:05;;;;;;;5.47;4.95;;;6.90;99.90;;;;;;4961860;28;20043;-64
2023/04/11 00:54:31;;;;;;;5.88;4.00;;;6.80;99.90;;;;;;4966192;28;20037;-64
2023/04/11 00:57:02;;;;;;;5.05;4.22;;;6.60;99.90;;;;;;4967866;28;20053;-65
2023/04/11 00:59:28;;;;;;;5.55;4.72;;;6.50;99.90;;;;;;4964667;28;20057;-66
2023/04/11 01:01:55;;;;;;;4.97;4.28;;;6.20;99.90;;;;;;4965648;28;20034;-65
2023/04/11 01:04:20;;;;;;;5.95;4.15;;;6.10;99.90;;;;;;4964861;28;20030;-66
2023/04/11 01:06:51;;;;;;;4.85;4.35;;;6.00;99.90;;;;;;4965409;28;20081;-66
2023/04/11 01:09:23;;;;;;;6.45;5.32;;;6.10;99.90;;;;;;4968294;28;20148;-65
2023/04/11 01:11:50;;;;;;;6.78;5.18;;;6.20;99.90;;;;;;4972308;28;20058;-65
2023/04/11 01:14:17;;;;;;;6.18;5.22;;;6.20;99.90;;;;;;4970515;28;20042;-65
2023/04/11 01:16:46;;;;;;;7.03;5.60;;;6.10;99.90;;;;;;4968255;28;20064;-64
2023/04/11 01:19:16;;;;;;;7.68;5.20;;;6.20;99.90;;;;;;4964530;28;20601;-65
2023/04/11 01:21:43;;;;;;;7.40;5.78;;;6.10;99.90;;;;;;4966187;28;20046;-65
2023/04/11 01:24:09;;;;;;;7.55;6.20;;;6.10;99.90;;;;;;4962563;28;20039;-64
2023/04/11 01:26:34;;;;;;;6.43;5.30;;;6.10;99.90;;;;;;4969197;28;20628;-65
2023/04/11 01:29:01;;;;;;;6.65;5.68;;;6.20;99.90;;;;;;4969761;28;20058;-64
2023/04/11 01:31:27;;;;;;;7.65;5.68;;;6.10;99.90;;;;;;4967426;28;20034;-65
2023/04/11 01:33:52;;;;;;;5.90;5.22;;;6.00;99.90;;;;;;4970577;28;20727;-65
2023/04/11 01:36:19;;;;;;;6.53;5.40;;;6.00;99.90;;;;;;4973415;28;20050;-65
2023/04/11 01:38:44;;;;;;;6.18;5.57;;;6.00;99.90;;;;;;4970689;28;20061;-65
2023/04/11 01:41:10;;;;;;;6.28;5.47;;;6.10;99.90;;;;;;4960219;28;20050;-65
2023/04/11 01:43:36;;;;;;;9.05;5.90;;;6.00;99.90;;;;;;4972527;28;20039;-65
2023/04/11 01:46:02;;;;;;;8.00;6.28;;;6.00;99.90;;;;;;4966582;28;20182;-66
2023/04/11 01:48:28;;;;;;;8.07;5.57;;;6.00;99.90;;;;;;4966859;28;20138;-65
2023/04/11 01:50:55;;;;;;;5.57;4.63;;;6.10;99.90;;;;;;4984031;28;20046;-65
2023/04/11 01:53:20;;;;;;;5.90;4.93;;;6.00;99.90;;;;;;4968494;28;20050;-66
2023/04/11 01:55:46;;;;;;;5.05;4.55;;;5.70;99.90;;;;;;4968231;28;20045;-64
2023/04/11 01:58:12;;;;;;;6.25;5.22;;;5.70;99.90;;;;;;4965316;28;20799;-65
2023/04/11 02:00:38;;;;;;;7.47;5.60;;;5.80;99.90;;;;;;4967612;28;20105;-65
2023/04/11 02:03:04;;;;;;;6.97;5.70;;;6.00;99.90;;;;;;4964965;28;20034;-65
2023/04/11 02:05:29;;;;;;;5.03;4.40;;;6.10;99.90;;;;;;4966151;28;20108;-65
2023/04/11 02:07:55;;;;;;;5.32;4.22;;;6.10;99.90;;;;;;4970523;28;20142;-65
2023/04/11 02:10:21;;;;;;;4.15;3.75;;;6.00;99.90;;;;;;4967717;28;20353;-67
2023/04/11 02:12:46;;;;;;;6.28;4.97;;;5.70;99.90;;;;;;4963195;28;20462;-64
2023/04/11 02:15:12;;;;;;;6.00;5.18;;;5.80;99.90;;;;;;4963337;28;20121;-65
2023/04/11 02:17:43;;;;;;;7.38;5.68;;;5.70;99.90;;;;;;4967250;28;20578;-65
2023/04/11 02:20:13;;;;;;;7.28;5.55;;;5.70;99.90;;;;;;4962164;28;20097;-65
2023/04/11 02:22:39;;;;;;;8.85;6.00;;;5.70;99.90;;;;;;4968133;28;20601;-64
2023/04/11 02:25:06;;;;;;;7.03;4.25;;;5.80;99.90;;;;;;4969616;28;20050;-65
2023/04/11 02:27:32;;;;;;;4.75;4.20;;;5.90;99.90;;;;;;4966143;28;20042;-64
2023/04/11 02:29:59;;;;;;;6.60;4.32;;;5.90;99.90;;;;;;4967104;28;21932;-65
2023/04/11 02:32:26;;;;;;;6.78;4.22;;;5.80;99.90;;;;;;4967940;28;20044;-64
2023/04/11 02:34:52;;;;;;;5.00;3.78;;;5.70;99.90;;;;;;4971605;28;20045;-64
2023/04/11 02:37:18;;;;;;;7.47;5.32;;;5.60;99.90;;;;;;4967798;28;20339;-64
2023/04/11 02:39:44;;;;;;;11.13;9.65;;;5.60;99.90;;;;;;4970850;28;20573;-64
2023/04/11 02:42:11;;;;;;;7.13;5.38;;;5.50;99.90;;;;;;4967311;28;21627;-65
2023/04/11 02:44:37;;;;;;;8.15;6.38;;;5.40;99.90;;;;;;4966604;28;20081;-65
2023/04/11 02:47:02;;;;;;;17.40;12.30;;;5.40;99.90;;;;;;4966659;28;20125;-64
2023/04/11 02:49:28;;;;;;;12.52;9.90;;;5.50;99.90;;;;;;4969924;28;20038;-64
2023/04/11 02:51:54;;;;;;;10.25;7.80;;;5.40;99.90;;;;;;4970123;28;23122;-65
2023/04/11 02:54:19;;;;;;;13.02;8.88;;;5.20;99.90;;;;;;4967240;28;20080;-65
2023/04/11 02:56:45;;;;;;;5.35;4.38;;;5.20;99.90;;;;;;4964882;28;20565;-65
2023/04/11 02:59:11;;;;;;;3.85;3.38;;;5.20;99.90;;;;;;4964010;28;20490;-65
2023/04/11 03:01:37;;;;;;;5.85;4.63;;;5.20;99.90;;;;;;4962974;28;20053;-65
2023/04/11 03:04:02;;;;;;;4.40;3.53;;;5.10;99.90;;;;;;4954312;28;20035;-65
2023/04/11 03:06:28;;;;;;;5.88;4.22;;;5.10;99.90;;;;;;4971262;28;20053;-65
2023/04/11 03:08:54;;;;;;;6.05;5.03;;;5.00;99.90;;;;;;4974313;28;20073;-65
2023/04/11 03:11:20;;;;;;;5.88;4.68;;;5.00;99.90;;;;;;4969800;28;20198;-65
2023/04/11 03:13:46;;;;;;;8.20;6.20;;;5.00;99.90;;;;;;4967852;28;20035;-65
2023/04/11 03:16:14;;;;;;;6.03;5.30;;;5.00;99.90;;;;;;4971092;28;20140;-65
2023/04/11 03:18:40;;;;;;;6.97;4.40;;;5.00;99.90;;;;;;4964909;28;20097;-63
2023/04/11 03:21:09;;;;;;;6.30;4.45;;;5.10;99.90;;;;;;4972684;28;20626;-64
2023/04/11 03:23:38;;;;;;;5.10;4.20;;;5.20;99.90;;;;;;4969615;28;21883;-64
2023/04/11 03:26:07;;;;;;;6.55;4.53;;;5.20;99.90;;;;;;4972758;28;20022;-65
2023/04/11 03:28:32;;;;;;;5.78;4.10;;;5.20;99.90;;;;;;4968657;28;20038;-65
2023/04/11 03:30:58;;;;;;;4.68;3.42;;;5.10;99.90;;;;;;4971338;28;20455;-66
2023/04/11 03:33:24;;;;;;;5.43;3.80;;;5.10;99.90;;;;;;4968967;28;20048;-64
2023/04/11 03:35:49;;;;;;;4.82;3.75;;;5.10;99.90;;;;;;4968572;28;20038;-65
2023/04/11 03:38:15;;;;;;;5.88;4.10;;;5.10;99.90;;;;;;4955948;28;20070;-64
2023/04/11 03:40:41;;;;;;;6.57;3.67;;;5.00;99.90;;;;;;4952535;28;20117;-64
2023/04/11 03:43:06;;;;;;;4.05;3.13;;;4.90;99.90;;;;;;4948615;28;20570;-65
2023/04/11 03:45:32;;;;;;;3.70;3.22;;;4.90;99.90;;;;;;4945126;28;20497;-64
2023/04/11 03:47:58;;;;;;;5.47;3.28;;;4.90;99.90;;;;;;4949311;28;20038;-64
2023/04/11 03:50:23;;;;;;;3.58;2.75;;;4.80;99.90;;;;;;4947099;28;20045;-65
2023/04/11 03:52:49;;;;;;;3.63;2.97;;;4.60;99.90;;;;;;4944204;28;20042;-64
2023/04/11 03:55:15;;;;;;;3.65;2.70;;;4.60;99.90;;;;;;4947211;28;20558;-64
2023/04/11 03:57:40;;;;;;;4.20;2.78;;;4.60;99.90;;;;;;4944508;28;20058;-64
2023/04/11 04:00:07;;;;;;;3.97;2.42;;;4.60;99.90;;;;;;4938763;28;20039;-65
2023/04/11 04:02:32;;;;;;;3.72;2.45;;;4.60;99.90;;;;;;4940531;28;20050;-65
2023/04/11 04:04:58;;;;;;;4.32;3.00;;;4.50;99.90;;;;;;4934206;28;20050;-65
2023/04/11 04:07:25;;;;;;;5.05;3.08;;;4.50;99.90;;;;;;4942461;28;20590;-64
2023/04/11 04:09:51;;;;;;;4.32;3.03;;;4.60;99.90;;;;;;4942728;28;20030;-64
2023/04/11 04:12:17;;;;;;;5.05;3.33;;;4.70;99.90;;;;;;4943809;28;20039;-64
2023/04/11 04:14:44;;;;;;;5.57;4.18;;;4.80;99.90;;;;;;4936427;28;20556;-64
2023/04/11 04:17:11;;;;;;;4.55;3.95;;;4.80;99.90;;;;;;4927539;28;20143;-64
2023/04/11 04:19:37;;;;;;;4.35;3.53;;;4.80;99.90;;;;;;4942112;28;20041;-64
2023/04/11 04:22:03;;;;;;;6.45;3.22;;;4.70;99.90;;;;;;4945486;28;20043;-63
2023/04/11 04:24:30;;;;;;;3.28;2.90;;;4.60;99.90;;;;;;4941722;28;20051;-64
2023/04/11 04:27:02;;;;;;;4.40;3.28;;;4.50;99.90;;;;;;4934871;28;20135;-64
2023/04/11 04:29:32;;;;;;;3.80;3.13;;;4.40;99.90;;;;;;4929156;28;20043;-63
2023/04/11 04:32:00;;;;;;;3.75;2.50;;;4.40;99.90;;;;;;4938507;28;20042;-64
2023/04/11 04:34:27;;;;;;;4.93;2.35;;;4.40;99.90;;;;;;4944782;28;20077;-64
2023/04/11 04:36:58;;;;;;;5.80;2.70;;;4.50;99.90;;;;;;4940181;28;20039;-64
2023/04/11 04:39:24;;;;;;;4.18;2.80;;;4.70;99.90;;;;;;4925337;28;20051;-64
2023/04/11 04:42:08;;;;;;;3.20;2.90;;;4.80;99.90;;;;;;4938789;28;20068;-64
2023/04/11 04:44:34;;;;;;;5.75;3.10;;;4.70;99.90;;;;;;4934626;28;20165;-65
2023/04/11 04:46:59;;;;;;;4.13;3.50;;;4.80;99.90;;;;;;4943999;28;20407;-65
2023/04/11 04:49:25;;;;;;;6.57;4.45;;;4.90;99.90;;;;;;4934476;28;20039;-64
2023/04/11 04:51:50;;;;;;;11.95;7.88;;;5.10;99.90;;;;;;4934727;28;20135;-64
2023/04/11 04:54:18;;;;;;;5.68;4.97;;;5.30;99.90;;;;;;4943419;28;20035;-64
2023/04/11 04:56:44;;;;;;;6.72;5.80;;;5.40;99.90;;;;;;4946064;28;20819;-64
2023/04/11 04:59:13;;;;;;;22.73;14.77;;;5.50;99.90;;;;;;4939163;28;20157;-64
2023/04/11 05:01:39;;;;;;;22.63;16.88;;;5.40;99.90;;;;;;4949183;28;20046;-65
2023/04/11 05:04:04;;;;;;;23.40;15.55;;;5.50;99.90;;;;;;4948898;28;20046;-65
2023/04/11 05:06:31;;;;;;;29.20;20.15;;;5.50;99.90;;;;;;4944448;28;20075;-64
2023/04/11 05:08:58;;;;;;;30.85;21.58;;;5.70;99.90;;;;;;4944188;28;20049;-65
2023/04/11 05:11:25;;;;;;;19.45;14.68;;;5.80;99.90;;;;;;4936514;28;20039;-65
2023/04/11 05:13:51;;;;;;;22.80;16.52;;;6.10;99.90;;;;;;4937660;28;20157;-65
2023/04/11 05:16:17;;;;;;;16.73;11.32;;;6.30;99.90;;;;;;4937881;28;20094;-65
2023/04/11 05:18:43;;;;;;;21.52;7.60;;;6.50;99.90;;;;;;4952928;28;20065;-65
2023/04/11 05:21:08;;;;;;;10.25;8.93;;;6.60;99.90;;;;;;4938684;28;20560;-66
2023/04/11 05:23:34;;;;;;;12.57;10.35;;;6.60;99.90;;;;;;4949573;28;20748;-66
2023/04/11 05:26:00;;;;;;;13.63;10.77;;;6.70;99.90;;;;;;4946984;28;20054;-66
2023/04/11 05:28:26;;;;;;;18.65;13.95;;;6.80;99.90;;;;;;4933228;28;21059;-67
2023/04/11 05:30:52;;;;;;;12.60;9.68;;;6.90;99.90;;;;;;4949020;28;20035;-66
2023/04/11 05:33:17;;;;;;;8.60;6.78;;;7.00;99.90;;;;;;4942097;28;20084;-66
2023/04/11 05:35:43;;;;;;;7.53;6.05;;;7.00;99.90;;;;;;4941775;28;20994;-68
2023/04/11 05:38:09;;;;;;;7.28;6.32;;;7.20;99.90;;;;;;4932643;28;20057;-68
2023/04/11 05:40:35;;;;;;;11.77;5.68;;;7.20;99.90;;;;;;4944224;28;20046;-68
2023/04/11 05:43:01;;;;;;;8.50;5.95;;;7.40;99.90;;;;;;4938789;28;21789;-67
2023/04/11 05:45:27;;;;;;;8.07;6.10;;;7.60;99.90;;;;;;4939439;28;20058;-68
2023/04/11 05:47:53;;;;;;;6.20;5.53;;;7.80;99.90;;;;;;4946918;28;20496;-68
2023/04/11 05:50:19;;;;;;;6.55;5.80;;;8.00;99.90;;;;;;4948950;28;20039;-67
2023/04/11 05:52:44;;;;;;;8.32;5.82;;;8.30;99.90;;;;;;4940114;28;20469;-67
2023/04/11 05:55:11;;;;;;;7.70;6.28;;;8.50;99.90;;;;;;4945996;28;20047;-67
2023/04/11 05:57:36;;;;;;;8.93;6.97;;;8.80;99.90;;;;;;4937621;28;20042;-67
2023/04/11 06:00:11;;;;;;;7.57;6.72;;;9.10;99.90;;;;;;4950067;28;20098;-69
2023/04/11 06:02:37;;;;;;;7.88;7.07;;;9.30;99.90;;;;;;4943689;28;20031;-70
2023/04/11 06:05:03;;;;;;;9.30;7.82;;;9.50;99.90;;;;;;4950891;28;20505;-74
2023/04/11 06:07:31;;;;;;;13.30;8.93;;;9.60;99.90;;;;;;4945553;28;20046;-69
2023/04/11 06:09:56;;;;;;;15.13;12.77;;;9.70;99.90;;;;;;4951878;28;20495;-69
2023/04/11 06:12:22;;;;;;;19.08;14.77;;;9.80;99.90;;;;;;4955332;28;20036;-68
2023/04/11 06:14:48;;;;;;;11.43;10.20;;;9.90;99.90;;;;;;4965073;28;21117;-69
2023/04/11 06:17:13;;;;;;;14.20;11.90;;;10.10;99.90;;;;;;4956486;28;20038;-69
2023/04/11 06:19:39;;;;;;;13.05;10.63;;;10.30;99.90;;;;;;4949268;28;20046;-65
2023/04/11 06:22:05;;;;;;;13.73;9.63;;;10.40;99.90;;;;;;4953413;28;20043;-64
2023/04/11 06:24:38;;;;;;;12.05;9.52;;;10.50;99.90;;;;;;4957988;28;20038;-65
2023/04/11 06:27:05;;;;;;;16.75;12.57;;;10.70;99.90;;;;;;4954568;28;20110;-66
2023/04/11 06:29:30;;;;;;;24.45;18.48;;;10.90;99.90;;;;;;4957297;28;20609;-66
2023/04/11 06:31:57;;;;;;;36.25;26.08;;;11.00;99.90;;;;;;4953421;28;20035;-66
2023/04/11 06:34:23;;;;;;;21.45;15.70;;;11.10;99.90;;;;;;4946737;28;20439;-65
2023/04/11 06:36:49;;;;;;;15.63;11.75;;;11.20;99.90;;;;;;4948583;28;20890;-65
2023/04/11 06:39:18;;;;;;;12.60;10.27;;;11.30;99.90;;;;;;4952412;28;20167;-70
2023/04/11 06:41:45;;;;;;;11.52;9.65;;;11.20;99.90;;;;;;4962450;28;20034;-70
2023/04/11 06:44:10;;;;;;;12.85;10.05;;;11.20;99.90;;;;;;4952510;28;20038;-70
2023/04/11 06:46:36;;;;;;;11.10;10.00;;;11.20;99.90;;;;;;4928377;28;20047;-70
2023/04/11 06:49:02;;;;;;;10.70;9.18;;;11.30;99.90;;;;;;4941459;28;20054;-70
2023/04/11 06:51:28;;;;;;;10.40;9.18;;;11.30;99.90;;;;;;4944445;28;20039;-70
2023/04/11 06:53:54;;;;;;;11.25;10.05;;;11.40;99.90;;;;;;4952798;28;20043;-69
2023/04/11 06:56:20;;;;;;;11.48;10.18;;;11.50;99.90;;;;;;4933603;28;20403;-69
2023/04/11 06:58:45;;;;;;;10.80;9.20;;;11.50;99.90;;;;;;4961544;28;20046;-69
2023/04/11 07:01:13;;;;;;;11.77;9.55;;;11.60;99.90;;;;;;4936400;28;20051;-69
2023/04/11 07:03:38;;;;;;;13.23;10.50;;;11.80;99.90;;;;;;4953216;28;20488;-69
2023/04/11 07:06:06;;;;;;;11.18;9.27;;;11.90;99.90;;;;;;4951279;28;20037;-69
2023/04/11 07:08:32;;;;;;;13.40;9.68;;;12.00;99.90;;;;;;4954042;28;20058;-69
2023/04/11 07:10:57;;;;;;;14.45;10.88;;;12.20;99.90;;;;;;4942400;28;20680;-69
2023/04/11 07:13:23;;;;;;;11.15;9.95;;;12.40;99.90;;;;;;4946763;28;20411;-69
2023/04/11 07:15:49;;;;;;;14.98;10.07;;;12.60;99.90;;;;;;4929284;28;20222;-69
2023/04/11 07:18:14;;;;;;;10.27;9.18;;;12.70;99.90;;;;;;4954504;28;20045;-66
2023/04/11 07:20:40;;;;;;;11.32;9.02;;;12.90;99.90;;;;;;4955371;28;20064;-67
2023/04/11 07:23:06;;;;;;;9.73;8.73;;;13.00;99.90;;;;;;4951161;28;20125;-66
2023/04/11 07:25:32;;;;;;;8.43;7.20;;;13.30;99.90;;;;;;4952884;28;20047;-66
2023/04/11 07:28:01;;;;;;;6.78;5.97;;;13.50;99.90;;;;;;4954941;28;20035;-66
2023/04/11 07:30:27;;;;;;;7.50;6.60;;;13.70;99.90;;;;;;4948434;28;20050;-66
2023/04/11 07:32:53;;;;;;;7.75;6.47;;;13.80;99.90;;;;;;4942656;28;20034;-66
2023/04/11 07:35:19;;;;;;;5.47;4.03;;;14.00;99.90;;;;;;4948077;28;20035;-66
2023/04/11 07:37:45;;;;;;;3.03;2.70;;;14.20;99.90;;;;;;4950301;28;20050;-66
2023/04/11 07:40:13;;;;;;;3.53;3.05;;;14.30;99.90;;;;;;4946551;28;21645;-66
2023/04/11 07:42:39;;;;;;;4.00;3.33;;;14.30;99.90;;;;;;4944209;28;20042;-66
2023/04/11 07:45:06;;;;;;;3.80;3.35;;;14.30;99.90;;;;;;4939057;28;20046;-65
2023/04/11 07:47:31;;;;;;;3.67;2.90;;;14.30;99.90;;;;;;4941373;28;21332;-66
2023/04/11 07:49:57;;;;;;;2.92;2.50;;;14.30;99.90;;;;;;4952786;28;20043;-67
2023/04/11 07:52:26;;;;;;;3.45;3.13;;;14.40;99.90;;;;;;4930939;28;20085;-66
2023/04/11 07:54:52;;;;;;;3.50;2.40;;;14.30;99.90;;;;;;4938926;28;20138;-66
2023/04/11 07:57:17;;;;;;;3.72;1.95;;;14.30;99.90;;;;;;4948346;28;20049;-66
2023/04/11 07:59:43;;;;;;;4.18;1.85;;;14.20;99.90;;;;;;4940964;28;20089;-66
2023/04/11 08:02:09;;;;;;;2.60;1.73;;;14.10;99.90;;;;;;4936516;28;20583;-66
2023/04/11 08:04:35;;;;;;;2.08;1.80;;;14.00;99.90;;;;;;4915075;28;20639;-65
2023/04/11 08:07:02;;;;;;;2.00;1.60;;;14.10;99.90;;;;;;4928707;28;20035;-65
2023/04/11 08:09:28;;;;;;;8.27;2.63;;;14.20;99.90;;;;;;4948480;28;20045;-66
2023/04/11 08:11:55;;;;;;;4.55;1.92;;;14.30;99.90;;;;;;4943164;28;20032;-66
2023/04/11 08:14:21;;;;;;;6.03;2.10;;;14.40;99.90;;;;;;4932301;28;20575;-66
2023/04/11 08:16:47;;;;;;;2.92;1.85;;;14.40;99.90;;;;;;4947661;28;20487;-66
2023/04/11 08:19:13;;;;;;;2.10;1.90;;;14.40;99.90;;;;;;4943132;28;20510;-66
2023/04/11 08:21:38;;;;;;;6.13;2.30;;;14.40;99.90;;;;;;4942119;28;20054;-65
2023/04/11 08:24:04;;;;;;;2.60;1.98;;;14.30;99.90;;;;;;4947687;28;20049;-65
2023/04/11 08:26:30;;;;;;;2.10;1.90;;;14.30;99.90;;;;;;4935321;28;20027;-66
2023/04/11 08:28:55;;;;;;;2.20;2.00;;;14.30;99.90;;;;;;4956879;28;20447;-66
2023/04/11 08:31:21;;;;;;;8.65;2.90;;;14.30;99.90;;;;;;4938555;28;20039;-65
2023/04/11 08:33:47;;;;;;;13.60;2.17;;;14.40;99.90;;;;;;4948920;28;20522;-66
2023/04/11 08:36:12;;;;;;;3.95;2.15;;;14.50;99.90;;;;;;4956840;28;20507;-66
2023/04/11 08:38:41;;;;;;;8.35;2.47;;;14.50;99.90;;;;;;4954703;28;20134;-65
2023/04/11 08:41:07;;;;;;;3.70;1.92;;;14.50;99.90;;;;;;4942693;28;20765;-65
2023/04/11 08:43:38;;;;;;;2.70;2.20;;;14.60;99.90;;;;;;4947316;28;20135;-65
2023/04/11 08:46:06;;;;;;;2.45;2.25;;;14.60;99.90;;;;;;4941693;28;20437;-66
2023/04/11 08:48:32;;;;;;;5.65;2.10;;;14.50;99.90;;;;;;4953409;28;20034;-65
2023/04/11 08:50:58;;;;;;;2.78;1.85;;;14.50;99.90;;;;;;4937476;28;20047;-65
2023/04/11 08:53:25;;;;;;;1.92;1.65;;;14.60;99.90;;;;;;4946242;28;20035;-66
2023/04/11 08:55:51;;;;;;;2.40;1.63;;;14.60;99.90;;;;;;4949447;28;20050;-65
2023/04/11 08:58:17;;;;;;;2.60;1.67;;;14.70;99.90;;;;;;4929311;28;20051;-66
2023/04/11 09:00:43;;;;;;;1.73;1.45;;;14.80;99.90;;;;;;4942715;28;20066;-65
2023/04/11 09:03:11;;;;;;;2.42;1.67;;;14.80;99.90;;;;;;4947564;28;21282;-65
2023/04/11 09:05:39;;;;;;;3.28;1.90;;;14.80;99.90;;;;;;4952126;28;20057;-65
2023/04/11 09:08:09;;;;;;;2.25;1.88;;;14.90;99.90;;;;;;4943344;28;20046;-65
2023/04/11 09:10:37;;;;;;;2.42;1.95;;;14.80;99.90;;;;;;4964604;28;20035;-65
2023/04/11 09:13:22;;;;;;;3.78;2.05;;;14.80;99.90;;;;;;4948804;28;20065;-65
2023/04/11 09:16:03;;;;;;;2.30;2.10;;;14.80;99.90;;;;;;4956915;28;20045;-65
2023/04/11 09:18:58;;;;;;;6.30;2.08;;;14.80;99.90;;;;;;4955377;28;20061;-65
2023/04/11 09:21:24;;;;;;;3.55;1.98;;;14.80;99.90;;;;;;4941233;28;20080;-65
2023/04/11 09:23:50;;;;;;;2.42;2.00;;;14.80;99.90;;;;;;4947890;28;20034;-65
2023/04/11 09:26:26;;;;;;;2.33;2.00;;;14.80;99.90;;;;;;4941649;28;20141;-65
2023/04/11 09:28:52;;;;;;;2.03;1.83;;;14.80;99.90;;;;;;4957251;28;20109;-66
2023/04/11 09:31:18;;;;;;;3.17;2.60;;;14.90;99.90;;;;;;4956005;28;20491;-66
2023/04/11 09:33:55;;;;;;;3.05;2.10;;;15.00;99.90;;;;;;4950965;28;20035;-65
2023/04/11 09:36:22;;;;;;;2.05;1.85;;;15.00;99.90;;;;;;4955297;28;20042;-70
2023/04/11 09:38:48;;;;;;;4.28;2.30;;;15.00;99.90;;;;;;4942516;28;20138;-69
2023/04/11 09:41:14;;;;;;;2.78;2.47;;;15.00;99.90;;;;;;4955937;28;20343;-69
2023/04/11 09:43:54;;;;;;;3.72;2.60;;;15.00;99.90;;;;;;4965758;28;20046;-68
2023/04/11 09:46:20;;;;;;;3.63;2.17;;;15.10;99.90;;;;;;4955539;28;20030;-69
2023/04/11 09:48:53;;;;;;;2.55;2.35;;;15.20;99.90;;;;;;4957330;28;20933;-68
2023/04/11 09:51:19;;;;;;;6.15;2.83;;;15.20;99.90;;;;;;4955116;28;20044;-68
2023/04/11 09:53:45;;;;;;;3.22;2.15;;;15.30;99.90;;;;;;4970309;28;20041;-65
2023/04/11 09:56:12;;;;;;;2.70;2.40;;;15.40;99.60;;;;;;4969022;28;20499;-65
2023/04/11 09:58:40;;;;;;;7.00;2.38;;;15.30;99.90;;;;;;4973204;28;20504;-66
2023/04/11 10:01:08;;;;;;;15.25;3.53;;;15.30;99.20;;;;;;4979929;28;20046;-66
2023/04/11 10:03:38;;;;;;;4.22;3.15;;;15.40;99.70;;;;;;4971579;28;20043;-65
2023/04/11 10:06:14;;;;;;;3.60;2.70;;;15.50;99.70;;;;;;4968915;28;20061;-66
2023/04/11 10:08:41;;;;;;;3.03;2.55;;;15.60;99.90;;;;;;4956688;28;20026;-68
2023/04/11 10:11:09;;;;;;;3.10;2.90;;;15.60;99.20;;;;;;4975215;28;20435;-69
2023/04/11 10:13:44;;;;;;;4.95;3.08;;;15.70;99.80;;;;;;4964015;28;20050;-69
2023/04/11 10:16:20;;;;;;;3.38;2.88;;;15.80;99.90;;;;;;4970639;28;20050;-69
2023/04/11 10:18:51;;;;;;;3.70;3.10;;;15.90;99.30;;;;;;4974892;28;20055;-68
2023/04/11 10:21:29;;;;;;;4.88;2.95;;;15.90;99.50;;;;;;4974138;28;20034;-69
2023/04/11 10:24:14;;;;;;;4.97;3.35;;;15.90;99.50;;;;;;4963672;28;20038;-68
2023/04/11 10:26:53;;;;;;;7.07;4.95;;;16.00;99.20;;;;;;4953320;28;20151;-69
2023/04/11 10:29:39;;;;;;;13.50;6.40;;;15.90;98.90;;;;;;4957059;28;20539;-69
2023/04/11 10:32:17;;;;;;;3.42;3.08;;;15.80;98.50;;;;;;4967132;28;20046;-69
2023/04/11 10:34:50;;;;;;;3.80;3.40;;;15.60;99.00;;;;;;4970307;28;20781;-68
2023/04/11 10:37:18;;;;;;;4.50;3.30;;;15.70;99.20;;;;;;4974375;28;20062;-71
2023/04/11 10:39:52;;;;;;;3.92;3.22;;;15.90;99.00;;;;;;4964052;28;20046;-70
2023/04/11 10:42:27;;;;;;;4.63;3.60;;;16.00;98.00;;;;;;4966038;28;20062;-70
2023/04/11 10:45:28;;;;;;;4.10;2.92;;;16.00;98.10;;;;;;4964176;28;20115;-70
2023/04/11 10:48:00;;;;;;;4.45;3.03;;;16.10;98.10;;;;;;4954606;28;20220;-71
2023/04/11 10:50:25;;;;;;;3.35;2.85;;;16.10;97.80;;;;;;4964663;28;20062;-70
2023/04/11 10:52:55;;;;;;;5.05;2.95;;;16.30;97.70;;;;;;4963622;28;20141;-70
2023/04/11 10:55:23;;;;;;;4.00;2.80;;;16.50;96.90;;;;;;4959185;28;20554;-69
2023/04/11 10:58:09;;;;;;;5.70;3.28;;;16.70;94.50;;;;;;4945883;28;20914;-70
2023/04/11 11:00:50;;;;;;;3.80;2.83;;;16.80;94.70;;;;;;4957654;28;20624;-70
2023/04/11 11:03:22;;;;;;;8.10;3.50;;;16.90;92.60;;;;;;4961224;28;20411;-69
2023/04/11 11:05:59;;;;;;;5.43;3.83;;;16.90;92.90;;;;;;4967113;28;20069;-72
2023/04/11 11:08:29;;;;;;;7.78;3.95;;;17.00;93.60;;;;;;4961892;28;20046;-72
2023/04/11 11:11:06;;;;;;;3.40;3.10;;;17.10;94.30;;;;;;4963930;28;20045;-71
2023/04/11 11:13:42;;;;;;;5.60;3.85;;;17.00;93.10;;;;;;4951866;28;20053;-71
2023/04/11 11:16:12;;;;;;;10.38;3.97;;;17.10;92.50;;;;;;4962989;28;20042;-73
2023/04/11 11:18:37;;;;;;;15.60;3.90;;;17.20;92.20;;;;;;4948373;28;20042;-71
2023/04/11 11:21:03;;;;;;;4.18;3.53;;;17.20;91.70;;;;;;4956611;28;20499;-70
2023/04/11 11:23:30;;;;;;;14.73;3.95;;;17.20;91.00;;;;;;4959966;28;20102;-71
2023/04/11 11:25:57;;;;;;;5.47;3.33;;;17.30;90.60;;;;;;4963693;28;20030;-71
2023/04/11 11:28:24;;;;;;;3.53;3.22;;;17.30;89.60;;;;;;4963937;28;20046;-71
2023/04/11 11:30:51;;;;;;;4.07;3.60;;;17.30;90.00;;;;;;4964106;28;20573;-70
2023/04/11 11:33:18;;;;;;;5.97;4.38;;;17.40;90.70;;;;;;4959948;28;20030;-70
2023/04/11 11:36:15;;;;;;;3.72;3.40;;;17.50;92.00;;;;;;4957333;28;20026;-70
2023/04/11 11:38:41;;;;;;;5.50;3.97;;;17.50;91.20;;;;;;4945092;28;20069;-71
2023/04/11 11:41:06;;;;;;;5.93;3.17;;;17.50;89.10;;;;;;4949467;28;20046;-70
2023/04/11 11:43:35;;;;;;;4.47;3.50;;;17.50;86.00;;;;;;4958144;28;20039;-69
2023/04/11 11:46:14;;;;;;;4.78;3.35;;;17.30;86.60;;;;;;4958793;28;20648;-66
2023/04/11 11:49:00;;;;;;;4.65;4.10;;;17.30;87.40;;;;;;4949063;28;20053;-66
2023/04/11 11:51:37;;;;;;;5.63;4.38;;;17.20;88.80;;;;;;4948172;28;20034;-67
2023/04/11 11:54:08;;;;;;;5.05;4.55;;;17.10;86.60;;;;;;4959083;28;20046;-66
2023/04/11 11:56:35;;;;;;;5.00;4.43;;;17.00;91.20;;;;;;4961355;28;20038;-66
2023/04/11 11:59:03;;;;;;;6.20;4.38;;;17.30;89.60;;;;;;4948306;28;22111;-66
2023/04/11 12:01:32;;;;;;;6.30;5.30;;;17.50;90.50;;;;;;4961157;28;20136;-65
2023/04/11 12:03:58;;;;;;;6.65;4.53;;;17.70;89.70;;;;;;4942844;28;20060;-65
2023/04/11 12:06:29;;;;;;;6.07;4.75;;;17.80;87.50;;;;;;4955700;28;20038;-65
2023/04/11 12:09:09;;;;;;;5.82;4.75;;;17.70;82.50;;;;;;4948172;28;20311;-66
2023/04/11 12:11:40;;;;;;;9.48;4.47;;;17.50;81.10;;;;;;4934298;28;20679;-66
2023/04/11 12:14:07;;;;;;;9.68;5.35;;;17.40;86.40;;;;;;4931400;28;20042;-67
2023/04/11 12:16:33;;;;;;;5.80;5.30;;;17.30;87.00;;;;;;4947965;28;20035;-65
2023/04/11 12:19:01;;;;;;;5.93;5.35;;;17.10;86.70;;;;;;4947232;28;21907;-65
2023/04/11 12:21:27;;;;;;;8.82;6.47;;;17.10;89.50;;;;;;4948791;28;20129;-67
2023/04/11 12:23:53;;;;;;;7.55;6.10;;;17.00;90.70;;;;;;4944644;28;20062;-66
2023/04/11 12:26:20;;;;;;;7.03;6.15;;;17.10;91.40;;;;;;4949814;28;21228;-66
2023/04/11 12:28:46;;;;;;;9.02;6.80;;;17.10;90.40;;;;;;4951336;28;20034;-67
2023/04/11 12:31:11;;;;;;;7.65;6.18;;;17.10;89.60;;;;;;4957770;28;20794;-66
2023/04/11 12:33:37;;;;;;;6.95;6.25;;;17.20;89.70;;;;;;4965812;28;20176;-65
2023/04/11 12:36:06;;;;;;;7.63;6.50;;;17.00;90.10;;;;;;4962032;28;20487;-66
2023/04/11 12:38:32;;;;;;;8.70;6.13;;;16.90;90.50;;;;;;4959166;28;20050;-65
2023/04/11 12:40:58;;;;;;;7.68;6.15;;;16.90;91.40;;;;;;4968566;28;20500;-66
2023/04/11 12:43:23;;;;;;;6.68;5.05;;;16.90;91.20;;;;;;4969823;28;20396;-65
2023/04/11 12:45:50;;;;;;;6.82;5.30;;;17.00;90.30;;;;;;4957573;28;20139;-65
2023/04/11 12:48:15;;;;;;;6.50;5.03;;;17.00;87.70;;;;;;4967385;28;20049;-65
2023/04/11 12:50:41;;;;;;;6.88;4.65;;;17.00;86.40;;;;;;4961064;28;20034;-65